createdAt,value
2024-05-09T00:02:11.555Z,5.07
2024-05-09T00:04:39.164Z,4.35
2024-05-09T00:07:05.755Z,3.65
2024-05-09T00:09:32.468Z,4.30
2024-05-09T00:11:59.143Z,4.17
2024-05-09T00:14:25.991Z,5.50
2024-05-09T00:16:52.625Z,4.80
2024-05-09T00:19:19.369Z,4.50
2024-05-09T00:21:46.005Z,4.05
2024-05-09T00:24:12.685Z,4.20
2024-05-09T00:26:39.354Z,4.65
2024-05-09T00:29:05.949Z,3.67
2024-05-09T00:31:32.516Z,5.20
2024-05-09T00:33:59.242Z,3.75
2024-05-09T00:36:25.910Z,5.30
2024-05-09T00:38:52.459Z,4.15
2024-05-09T00:41:19.895Z,4.35
2024-05-09T00:43:46.686Z,4.43
2024-05-09T00:46:13.747Z,3.95
2024-05-09T00:48:41.055Z,4.97
2024-05-09T00:51:08.020Z,5.05
2024-05-09T00:53:34.946Z,7.03
2024-05-09T00:56:01.863Z,4.07
2024-05-09T00:58:29.644Z,4.93
2024-05-09T01:00:59.271Z,5.03
2024-05-09T01:03:26.989Z,4.72
2024-05-09T01:05:54.155Z,4.68
2024-05-09T01:08:21.070Z,4.18
2024-05-09T01:10:48.712Z,4.57
2024-05-09T01:13:15.536Z,7.87
2024-05-09T01:15:43.047Z,5.03
2024-05-09T01:18:12.379Z,7.10
2024-05-09T01:20:43.290Z,4.80
2024-05-09T01:23:12.653Z,4.72
2024-05-09T01:25:40.239Z,4.90
2024-05-09T01:28:07.132Z,4.95
2024-05-09T01:30:36.310Z,5.22
2024-05-09T01:33:09.600Z,5.20
2024-05-09T01:35:38.818Z,5.95
2024-05-09T01:38:06.161Z,6.10
2024-05-09T01:40:38.003Z,4.30
2024-05-09T01:43:07.570Z,4.25
2024-05-09T01:45:34.363Z,5.65
2024-05-09T01:48:01.305Z,5.47
2024-05-09T01:50:37.721Z,8.50
2024-05-09T01:53:08.961Z,5.95
2024-05-09T01:55:35.699Z,4.95
2024-05-09T01:58:02.297Z,4.72
2024-05-09T02:00:37.581Z,6.65
2024-05-09T02:03:10.191Z,5.07
2024-05-09T02:05:37.850Z,5.57
2024-05-09T02:08:05.808Z,5.10
2024-05-09T02:10:33.396Z,5.75
2024-05-09T02:13:00.431Z,4.68
2024-05-09T02:15:27.010Z,4.80
2024-05-09T02:17:53.885Z,4.45
2024-05-09T02:20:30.136Z,4.60
2024-05-09T02:23:04.011Z,4.43
2024-05-09T02:25:32.025Z,4.90
2024-05-09T02:27:58.745Z,5.03
2024-05-09T02:30:35.333Z,6.25
2024-05-09T02:33:06.592Z,5.72
2024-05-09T02:35:33.636Z,4.95
2024-05-09T02:38:00.584Z,4.68
2024-05-09T02:40:35.651Z,4.80
2024-05-09T02:43:05.096Z,4.45
2024-05-09T02:45:31.845Z,4.80
2024-05-09T02:47:58.995Z,4.05
2024-05-09T02:50:33.816Z,5.10
2024-05-09T02:53:05.196Z,5.80
2024-05-09T02:55:32.276Z,5.03
2024-05-09T02:57:58.962Z,4.60
2024-05-09T03:00:34.534Z,3.70
2024-05-09T03:03:07.152Z,5.75
2024-05-09T03:05:34.219Z,5.20
2024-05-09T03:08:01.044Z,5.65
2024-05-09T03:10:29.241Z,4.63
2024-05-09T03:13:09.088Z,4.97
2024-05-09T03:15:36.005Z,5.03
2024-05-09T03:18:03.249Z,3.57
2024-05-09T03:20:34.246Z,4.20
2024-05-09T03:23:02.951Z,4.25
2024-05-09T03:25:29.699Z,6.68
2024-05-09T03:27:56.570Z,5.38
2024-05-09T03:30:35.862Z,5.23
2024-05-09T03:33:10.987Z,5.47
2024-05-09T03:35:38.140Z,4.90
2024-05-09T03:38:04.950Z,6.45
2024-05-09T03:40:31.593Z,6.30
2024-05-09T03:42:58.859Z,9.13
2024-05-09T03:45:25.597Z,8.98
2024-05-09T03:47:52.670Z,6.20
2024-05-09T03:50:26.481Z,4.35
2024-05-09T03:53:00.620Z,5.90
2024-05-09T03:55:27.481Z,7.03
2024-05-09T03:57:54.097Z,4.15
2024-05-09T04:00:30.472Z,7.45
2024-05-09T04:03:02.878Z,5.85
2024-05-09T04:05:31.126Z,5.55
2024-05-09T04:07:58.105Z,6.73
2024-05-09T04:10:31.350Z,6.53
2024-05-09T04:13:01.018Z,7.68
2024-05-09T04:15:27.737Z,6.88
2024-05-09T04:17:54.440Z,6.97
2024-05-09T04:20:32.562Z,8.23
2024-05-09T04:23:05.412Z,10.77
2024-05-09T04:25:32.183Z,6.32
2024-05-09T04:27:58.759Z,6.63
2024-05-09T04:30:34.607Z,6.90
2024-05-09T04:33:06.721Z,9.37
2024-05-09T04:35:34.559Z,6.93
2024-05-09T04:38:01.402Z,7.22
2024-05-09T04:40:33.442Z,7.95
2024-05-09T04:43:03.416Z,9.50
2024-05-09T04:45:30.395Z,6.63
2024-05-09T04:47:57.518Z,7.05
2024-05-09T04:50:33.610Z,5.78
2024-05-09T04:53:04.926Z,6.80
2024-05-09T04:55:33.143Z,5.82
2024-05-09T04:57:59.841Z,4.77
2024-05-09T05:00:34.528Z,9.52
2024-05-09T05:03:07.001Z,6.28
2024-05-09T05:05:36.239Z,7.57
2024-05-09T05:08:02.926Z,7.38
2024-05-09T05:10:35.502Z,5.43
2024-05-09T05:13:17.733Z,5.05
2024-05-09T05:15:53.326Z,5.38
2024-05-09T05:18:22.064Z,5.57
2024-05-09T05:20:49.382Z,4.90
2024-05-09T05:23:21.146Z,5.27
2024-05-09T05:25:49.214Z,6.63
2024-05-09T05:28:16.779Z,5.85
2024-05-09T05:30:43.891Z,6.10
2024-05-09T05:33:12.375Z,5.28
2024-05-09T05:35:39.775Z,5.37
2024-05-09T05:38:07.396Z,4.95
2024-05-09T05:40:37.258Z,5.75
2024-05-09T05:43:10.445Z,4.25
2024-05-09T05:45:37.850Z,5.63
2024-05-09T05:48:06.343Z,4.37
2024-05-09T05:50:36.669Z,6.25
2024-05-09T05:53:09.831Z,6.68
2024-05-09T05:55:37.764Z,6.63
2024-05-09T05:58:04.657Z,5.50
2024-05-09T06:00:38.263Z,8.13
2024-05-09T06:03:07.580Z,7.53
2024-05-09T06:05:35.818Z,7.25
2024-05-09T06:08:02.689Z,7.50
2024-05-09T06:10:37.498Z,7.07
2024-05-09T06:13:07.162Z,7.17
2024-05-09T06:15:33.816Z,8.10
2024-05-09T06:18:00.644Z,8.02
2024-05-09T06:20:34.935Z,8.32
2024-05-09T06:23:04.508Z,8.30
2024-05-09T06:25:31.476Z,9.80
2024-05-09T06:27:59.118Z,9.23
2024-05-09T06:30:34.449Z,8.90
2024-05-09T06:33:06.074Z,9.57
2024-05-09T06:35:33.648Z,10.80
2024-05-09T06:38:00.785Z,10.40
2024-05-09T06:40:36.211Z,8.88
2024-05-09T06:43:05.972Z,10.32
2024-05-09T06:45:32.644Z,9.05
2024-05-09T06:47:59.350Z,11.52
2024-05-09T06:50:28.656Z,10.17
2024-05-09T06:53:02.249Z,10.23
2024-05-09T06:55:29.067Z,11.45
2024-05-09T06:57:55.651Z,12.13
2024-05-09T07:00:30.197Z,10.35
2024-05-09T07:03:12.435Z,10.80
2024-05-09T07:05:40.690Z,8.63
2024-05-09T07:08:07.559Z,10.27
2024-05-09T07:10:36.372Z,9.82
2024-05-09T07:13:07.723Z,10.23
2024-05-09T07:15:34.265Z,10.03
2024-05-09T07:18:00.978Z,9.50
2024-05-09T07:20:34.110Z,10.70
2024-05-09T07:23:03.159Z,10.25
2024-05-09T07:25:30.288Z,9.23
2024-05-09T07:27:57.112Z,12.37
2024-05-09T07:30:32.537Z,10.23
2024-05-09T07:33:01.619Z,8.80
2024-05-09T07:35:29.127Z,8.95
2024-05-09T07:37:55.953Z,8.05
2024-05-09T07:40:32.337Z,10.07
2024-05-09T07:43:07.491Z,8.13
2024-05-09T07:52:23.832Z,8.90
2024-05-09T07:53:38.900Z,10.77
2024-05-09T07:56:09.395Z,9.05
2024-05-09T07:58:36.745Z,9.07
2024-05-09T08:01:03.713Z,8.40
2024-05-09T08:03:31.062Z,8.93
2024-05-09T08:05:57.684Z,7.67
2024-05-09T08:08:24.270Z,7.10
2024-05-09T08:10:51.568Z,8.43
2024-05-09T08:13:18.450Z,7.00
2024-05-09T08:15:45.334Z,7.93
2024-05-09T08:18:12.220Z,7.30
2024-05-09T08:20:40.258Z,6.45
2024-05-09T08:23:07.344Z,7.43
2024-05-09T08:25:34.087Z,6.72
2024-05-09T08:28:00.863Z,6.65
2024-05-09T08:30:33.667Z,7.73
2024-05-09T08:33:05.134Z,9.88
2024-05-09T08:35:33.950Z,8.20
2024-05-09T08:38:03.316Z,8.07
2024-05-09T08:40:35.595Z,7.93
2024-05-09T08:43:07.774Z,7.20
2024-05-09T08:45:35.966Z,7.05
2024-05-09T08:48:06.279Z,8.32
2024-05-09T08:50:38.686Z,8.40
2024-05-09T08:53:07.321Z,8.73
2024-05-09T08:55:34.068Z,8.33
2024-05-09T08:58:03.439Z,8.63
2024-05-09T09:00:36.791Z,7.65
2024-05-09T09:03:09.110Z,7.20
2024-05-09T09:05:39.092Z,8.23
2024-05-09T09:08:07.983Z,7.53
2024-05-09T09:10:35.607Z,6.43
2024-05-09T09:13:04.918Z,7.85
2024-05-09T09:15:32.262Z,8.43
2024-05-09T09:18:02.280Z,7.07
2024-05-09T09:20:36.297Z,7.53
2024-05-09T09:23:04.489Z,7.82
2024-05-09T09:25:32.105Z,7.35
2024-05-09T09:27:59.236Z,7.05
2024-05-09T09:30:36.291Z,7.00
2024-05-09T09:33:06.104Z,8.70
2024-05-09T09:35:33.049Z,7.05
2024-05-09T09:38:02.819Z,17.52
2024-05-09T09:40:36.004Z,6.20
2024-05-09T09:43:09.474Z,6.20
2024-05-09T09:45:36.599Z,5.87
2024-05-09T09:48:04.974Z,5.88
2024-05-09T09:50:35.311Z,6.22
2024-05-09T09:53:04.881Z,6.15
2024-05-09T09:55:32.947Z,7.20
2024-05-09T09:58:00.613Z,5.90
2024-05-09T10:00:32.755Z,6.50
2024-05-09T10:03:00.981Z,5.93
2024-05-09T10:05:28.783Z,6.10
2024-05-09T10:07:57.420Z,5.78
2024-05-09T10:10:32.077Z,5.43
2024-05-09T10:13:00.925Z,6.30
2024-05-09T10:15:28.055Z,5.93
2024-05-09T10:17:54.920Z,5.68
2024-05-09T10:20:27.998Z,5.88
2024-05-09T10:22:57.689Z,5.03
2024-05-09T10:25:25.147Z,6.10
2024-05-09T10:27:55.635Z,5.70
2024-05-09T10:30:29.798Z,7.68
2024-05-09T10:33:02.499Z,5.10
2024-05-09T10:35:31.964Z,7.87
2024-05-09T10:38:06.001Z,5.15
2024-05-09T10:40:33.120Z,5.15
2024-05-09T10:43:02.606Z,6.18
2024-05-09T10:45:32.031Z,5.68
2024-05-09T10:47:58.890Z,6.20
2024-05-09T10:50:29.155Z,4.50
2024-05-09T10:53:00.460Z,6.93
2024-05-09T10:55:27.516Z,5.63
2024-05-09T10:57:54.256Z,5.75
2024-05-09T11:00:27.602Z,5.67
2024-05-09T11:03:00.114Z,6.43
2024-05-09T11:05:26.986Z,7.82
2024-05-09T11:07:53.962Z,6.68
2024-05-09T11:10:27.628Z,10.88
2024-05-09T11:13:00.092Z,7.57
2024-05-09T11:15:37.173Z,6.18
2024-05-09T11:18:04.002Z,4.78
2024-05-09T11:20:37.541Z,7.45
2024-05-09T11:23:05.798Z,5.50
2024-05-09T11:25:35.219Z,7.03
2024-05-09T11:28:02.586Z,10.80
2024-05-09T11:30:32.087Z,8.00
2024-05-09T11:32:59.487Z,7.35
2024-05-09T11:35:27.036Z,7.35
2024-05-09T11:37:53.737Z,6.70
2024-05-09T11:40:25.498Z,6.65
2024-05-09T11:42:55.348Z,6.97
2024-05-09T11:45:22.070Z,7.18
2024-05-09T11:47:49.379Z,8.00
2024-05-09T11:50:26.431Z,6.83
2024-05-09T11:52:56.494Z,7.22
2024-05-09T11:55:27.372Z,6.90
2024-05-09T11:57:55.356Z,6.60
2024-05-09T12:00:29.592Z,6.53
2024-05-09T12:03:05.179Z,7.97
2024-05-09T12:05:32.952Z,9.45
2024-05-09T12:08:00.704Z,7.93
2024-05-09T12:10:33.149Z,5.45
2024-05-09T12:13:02.805Z,6.00
2024-05-09T12:15:30.162Z,6.63
2024-05-09T12:17:59.079Z,7.43
2024-05-09T12:20:35.458Z,5.30
2024-05-09T12:23:05.442Z,5.25
2024-05-09T12:25:32.137Z,5.90
2024-05-09T12:27:58.911Z,6.97
2024-05-09T12:30:35.231Z,6.43
2024-05-09T12:33:05.962Z,6.32
2024-05-09T12:35:32.945Z,6.97
2024-05-09T12:37:59.736Z,5.03
2024-05-09T12:40:34.479Z,7.70
2024-05-09T12:43:04.688Z,8.23
2024-05-09T12:45:31.718Z,6.53
2024-05-09T12:47:58.653Z,7.75
2024-05-09T12:50:31.907Z,9.27
2024-05-09T12:53:01.590Z,6.63
2024-05-09T12:55:31.775Z,5.68
2024-05-09T12:58:04.191Z,8.13
2024-05-09T13:00:33.977Z,7.20
2024-05-09T13:03:01.506Z,7.78
2024-05-09T13:05:28.817Z,5.57
2024-05-09T13:07:56.833Z,6.82
2024-05-09T13:10:31.129Z,5.95
2024-05-09T13:13:00.175Z,11.75
2024-05-09T13:15:27.315Z,8.75
2024-05-09T13:17:56.357Z,5.67
2024-05-09T13:20:31.229Z,6.38
2024-05-09T13:23:02.116Z,8.73
2024-05-09T13:25:28.853Z,8.50
2024-05-09T13:27:56.578Z,6.82
2024-05-09T13:30:29.799Z,6.90
2024-05-09T13:33:05.456Z,7.65
2024-05-09T13:35:34.400Z,6.60
2024-05-09T13:38:02.091Z,8.35
2024-05-09T13:40:33.668Z,7.25
2024-05-09T13:43:02.894Z,6.03
2024-05-09T13:45:29.739Z,8.57
2024-05-09T13:47:56.872Z,7.30
2024-05-09T13:50:31.575Z,7.60
2024-05-09T13:53:02.294Z,6.60
2024-05-09T13:55:28.952Z,6.83
2024-05-09T13:57:56.013Z,7.13
2024-05-09T14:00:32.334Z,7.40
2024-05-09T14:03:09.542Z,8.15
2024-05-09T14:05:36.445Z,7.93
2024-05-09T14:08:03.288Z,8.43
2024-05-09T14:10:31.874Z,7.65
2024-05-09T14:12:59.647Z,6.72
2024-05-09T14:15:26.312Z,6.15
2024-05-09T14:17:53.012Z,8.35
2024-05-09T14:20:29.718Z,7.63
2024-05-09T14:22:58.343Z,8.05
2024-05-09T14:25:26.588Z,7.45
2024-05-09T14:27:53.588Z,7.40
2024-05-09T14:30:29.773Z,6.60
2024-05-09T14:33:01.580Z,7.57
2024-05-09T14:35:28.283Z,7.88
2024-05-09T14:37:55.044Z,7.22
2024-05-09T14:40:31.156Z,7.68
2024-05-09T14:43:06.440Z,8.55
2024-05-09T14:45:34.674Z,8.83
2024-05-09T14:48:02.267Z,7.78
2024-05-09T14:50:35.497Z,7.60
2024-05-09T14:53:06.211Z,8.52
2024-05-09T14:55:35.713Z,8.02
2024-05-09T14:58:03.055Z,10.57
2024-05-09T15:00:35.435Z,8.40
2024-05-09T15:03:03.664Z,8.48
2024-05-09T15:05:30.510Z,8.20
2024-05-09T15:07:57.857Z,8.63
2024-05-09T15:10:33.375Z,11.17
2024-05-09T15:13:02.409Z,10.77
2024-05-09T15:15:29.202Z,7.88
2024-05-09T15:17:55.972Z,8.05
2024-05-09T15:20:31.071Z,6.53
2024-05-09T15:23:02.046Z,8.30
2024-05-09T15:25:28.891Z,8.73
2024-05-09T15:27:55.619Z,11.02
2024-05-09T15:30:29.598Z,8.35
2024-05-09T15:32:58.548Z,7.97
2024-05-09T15:35:25.119Z,10.17
2024-05-09T15:37:51.846Z,9.65
2024-05-09T15:40:26.572Z,7.55
2024-05-09T15:43:02.346Z,6.57
2024-05-09T15:45:29.407Z,8.93
2024-05-09T15:47:57.131Z,7.27
2024-05-09T15:50:35.178Z,7.00
2024-05-09T15:53:06.445Z,7.80
2024-05-09T15:55:34.105Z,6.95
2024-05-09T15:58:02.653Z,10.85
2024-05-09T16:00:37.399Z,8.70
2024-05-09T16:03:08.068Z,7.78
2024-05-09T16:05:34.875Z,14.40
2024-05-09T16:08:01.893Z,9.38
2024-05-09T16:10:32.745Z,6.80
2024-05-09T16:13:01.897Z,8.63
2024-05-09T16:15:29.046Z,7.90
2024-05-09T16:17:56.452Z,9.63
2024-05-09T16:20:34.774Z,9.18
2024-05-09T16:23:06.684Z,7.45
2024-05-09T16:25:33.484Z,9.43
2024-05-09T16:28:00.395Z,9.50
2024-05-09T16:30:34.152Z,9.73
2024-05-09T16:33:05.842Z,11.25
2024-05-09T16:35:33.019Z,9.57
2024-05-09T16:38:02.262Z,9.40
2024-05-09T16:40:36.468Z,8.68
2024-05-09T16:43:06.843Z,9.27
2024-05-09T16:45:33.918Z,9.88
2024-05-09T16:48:01.604Z,11.95
2024-05-09T16:50:32.793Z,8.53
2024-05-09T16:53:02.005Z,9.27
2024-05-09T16:55:28.940Z,13.07
2024-05-09T16:57:56.976Z,9.25
2024-05-09T17:00:35.150Z,12.23
2024-05-09T17:03:07.921Z,12.70
2024-05-09T17:05:35.424Z,10.07
2024-05-09T17:08:02.722Z,10.20
2024-05-09T17:10:33.239Z,11.65
2024-05-09T17:13:02.479Z,12.35
2024-05-09T17:15:29.887Z,14.77
2024-05-09T17:17:56.799Z,18.83
2024-05-09T17:20:31.299Z,16.48
2024-05-09T17:23:02.676Z,20.10
2024-05-09T17:25:29.674Z,18.92
2024-05-09T17:27:56.896Z,22.77
2024-05-09T17:30:31.959Z,12.43
2024-05-09T17:33:04.324Z,12.90
2024-05-09T17:35:32.058Z,14.73
2024-05-09T17:37:59.781Z,17.55
2024-05-09T17:40:32.786Z,16.97
2024-05-09T17:43:03.237Z,16.38
2024-05-09T17:45:30.353Z,15.52
2024-05-09T17:47:57.383Z,12.55
2024-05-09T17:50:30.859Z,14.45
2024-05-09T17:53:01.880Z,15.77
2024-05-09T17:55:28.759Z,16.40
2024-05-09T17:57:55.567Z,13.18
2024-05-09T18:00:32.882Z,15.02
2024-05-09T18:03:05.497Z,17.80
2024-05-09T18:05:32.390Z,13.47
2024-05-09T18:07:59.139Z,12.65
2024-05-09T18:10:32.956Z,12.20
2024-05-09T18:13:05.652Z,11.93
2024-05-09T18:15:33.018Z,13.02
2024-05-09T18:18:00.039Z,14.53
2024-05-09T18:20:37.879Z,13.52
2024-05-09T18:23:10.097Z,16.30
2024-05-09T18:25:36.745Z,15.40
2024-05-09T18:28:03.876Z,14.82
2024-05-09T18:30:34.987Z,14.33
2024-05-09T18:33:04.581Z,12.80
2024-05-09T18:35:32.111Z,13.63
2024-05-09T18:37:58.725Z,13.32
2024-05-09T18:40:32.554Z,13.25
2024-05-09T18:43:03.386Z,13.43
2024-05-09T18:45:30.426Z,14.82
2024-05-09T18:47:57.207Z,12.00
2024-05-09T18:50:32.351Z,11.63
2024-05-09T18:53:05.770Z,14.77
2024-05-09T18:55:32.556Z,13.93
2024-05-09T18:57:59.201Z,13.30
2024-05-09T19:00:34.008Z,13.18
2024-05-09T19:03:05.946Z,11.10
2024-05-09T19:05:34.858Z,11.45
2024-05-09T19:08:02.172Z,14.77
2024-05-09T19:10:33.762Z,17.40
2024-05-09T19:13:04.352Z,15.85
2024-05-09T19:15:33.684Z,15.50
2024-05-09T19:18:00.656Z,14.48
2024-05-09T19:20:33.164Z,11.80
2024-05-09T19:23:01.418Z,13.73
2024-05-09T19:25:27.994Z,13.75
2024-05-09T19:27:54.644Z,15.15
2024-05-09T19:30:29.898Z,15.13
2024-05-09T19:33:04.765Z,15.00
2024-05-09T19:35:31.880Z,13.75
2024-05-09T19:37:58.598Z,16.27
2024-05-09T19:40:31.089Z,16.80
2024-05-09T19:42:59.991Z,12.65
2024-05-09T19:45:26.624Z,13.83
2024-05-09T19:47:53.473Z,10.80
2024-05-09T19:50:26.899Z,13.55
2024-05-09T19:53:02.352Z,12.40
2024-05-09T19:55:28.967Z,12.13
2024-05-09T19:57:55.578Z,11.37
2024-05-09T20:00:29.149Z,13.65
2024-05-09T20:03:01.938Z,11.15
2024-05-09T20:05:31.081Z,14.32
2024-05-09T20:07:58.014Z,11.73
2024-05-09T20:10:29.919Z,11.97
2024-05-09T20:12:59.498Z,11.57
2024-05-09T20:15:26.178Z,12.55
2024-05-09T20:17:53.342Z,11.48
2024-05-09T20:20:28.425Z,13.90
2024-05-09T20:23:02.888Z,17.10
2024-05-09T20:25:29.546Z,13.90
2024-05-09T20:27:56.184Z,15.65
2024-05-09T20:30:30.446Z,16.45
2024-05-09T20:32:59.826Z,16.70
2024-05-09T20:35:26.837Z,18.03
2024-05-09T20:37:53.631Z,15.40
2024-05-09T20:40:28.331Z,18.88
2024-05-09T20:42:59.297Z,15.55
2024-05-09T20:45:25.981Z,18.90
2024-05-09T20:47:53.065Z,18.03
2024-05-09T20:50:28.412Z,18.42
2024-05-09T20:53:02.853Z,16.35
2024-05-09T20:55:30.124Z,16.73
2024-05-09T20:57:57.367Z,19.48
2024-05-09T21:00:33.706Z,16.80
2024-05-09T21:03:06.495Z,17.90
2024-05-09T21:05:34.639Z,18.10
2024-05-09T21:08:01.879Z,16.27
2024-05-09T21:10:32.724Z,18.55
2024-05-09T21:13:00.812Z,19.67
2024-05-09T21:15:27.528Z,16.80
2024-05-09T21:17:54.176Z,18.05
2024-05-09T21:20:24.486Z,14.15
2024-05-09T21:22:57.907Z,15.20
2024-05-09T21:25:24.585Z,15.53
2024-05-09T21:27:51.428Z,17.65
2024-05-09T21:30:27.358Z,19.20
2024-05-09T21:32:59.965Z,16.70
2024-05-09T21:35:26.758Z,19.38
2024-05-09T21:37:53.451Z,15.13
2024-05-09T21:40:30.591Z,19.40
2024-05-09T21:43:01.294Z,15.48
2024-05-09T21:45:28.045Z,17.33
2024-05-09T21:47:54.771Z,17.75
2024-05-09T21:50:28.068Z,18.70
2024-05-09T21:52:59.244Z,17.17
2024-05-09T21:55:25.835Z,16.95
2024-05-09T21:57:52.518Z,16.60
2024-05-09T22:00:28.783Z,17.25
2024-05-09T22:03:02.314Z,18.53
2024-05-09T22:05:29.295Z,21.25
2024-05-09T22:07:56.666Z,18.35
2024-05-09T22:10:27.175Z,20.20
2024-05-09T22:13:00.192Z,16.90
2024-05-09T22:15:27.158Z,16.63
2024-05-09T22:17:54.003Z,19.58
2024-05-09T22:20:28.808Z,13.38
2024-05-09T22:23:02.578Z,13.25
2024-05-09T22:25:30.922Z,13.82
2024-05-09T22:27:58.643Z,14.87
2024-05-09T22:30:34.030Z,13.13
2024-05-09T22:33:05.478Z,13.80
2024-05-09T22:35:32.346Z,16.58
2024-05-09T22:37:59.056Z,12.88
2024-05-09T22:40:37.936Z,11.73
2024-05-09T22:43:12.661Z,13.77
2024-05-09T22:45:39.673Z,11.38
2024-05-09T22:48:07.520Z,11.73
2024-05-09T22:50:34.298Z,13.52
2024-05-09T22:53:01.196Z,12.63
2024-05-09T22:55:27.965Z,11.75
2024-05-09T22:57:54.702Z,13.52
2024-05-09T23:00:29.331Z,8.90
2024-05-09T23:03:02.604Z,11.65
2024-05-09T23:05:30.461Z,11.07
2024-05-09T23:07:57.201Z,14.00
2024-05-09T23:10:31.533Z,12.82
2024-05-09T23:13:02.910Z,13.63
2024-05-09T23:15:29.768Z,12.20
2024-05-09T23:17:57.363Z,12.30
2024-05-09T23:20:33.684Z,12.25
2024-05-09T23:23:05.382Z,15.77
2024-05-09T23:25:32.009Z,17.02
2024-05-09T23:27:58.823Z,18.33
2024-05-09T23:30:33.740Z,16.03
2024-05-09T23:33:05.966Z,17.10
2024-05-09T23:35:32.724Z,18.75
2024-05-09T23:37:59.523Z,20.55
2024-05-09T23:40:36.955Z,22.17
2024-05-09T23:43:06.963Z,20.57
2024-05-09T23:45:33.978Z,17.88
2024-05-09T23:48:01.230Z,17.48
2024-05-09T23:50:34.535Z,18.95
2024-05-09T23:53:05.110Z,18.55
2024-05-09T23:55:32.390Z,18.53
2024-05-09T23:57:59.740Z,15.55
